Time;durP1;ratioP1;P1;durP2;ratioP2;P2;SDS_P1;SDS_P2;PMS_P1;PMS_P2;Temp;Humidity;BMP_temperature;BMP_pressure;BME280_temperature;BME280_humidity;BME280_pressure;Samples;Min_cycle;Max_cycle;Signal;HPM_P1;HPM_P2
2021/04/14 00:01:11;;;;;;;2.70;2.00;;;;;;;3.32;54.81;98393.63;5105536;27;20530;-75
2021/04/14 00:03:37;;;;;;;4.88;2.63;;;;;;;3.43;54.49;98385.56;5111522;27;20339;-75
2021/04/14 00:06:04;;;;;;;3.97;2.17;;;;;;;3.38;54.55;98385.25;5101553;28;20031;-75
2021/04/14 00:08:30;;;;;;;3.85;2.25;;;;;;;3.41;55.02;98379.78;5106113;27;20035;-75
2021/04/14 00:10:56;;;;;;;4.20;2.05;;;;;;;3.37;55.36;98381.06;5089168;27;20035;-75
2021/04/14 00:13:24;;;;;;;7.35;2.80;;;;;;;3.28;55.84;98382.09;5094867;27;20390;-75
2021/04/14 00:15:53;;;;;;;6.32;2.45;;;;;;;3.29;55.33;98376.78;5104443;27;20079;-75
2021/04/14 00:18:19;;;;;;;4.85;2.40;;;;;;;3.28;55.54;98380.31;5084556;28;20036;-75
2021/04/14 00:20:45;;;;;;;5.18;2.55;;;;;;;3.27;56.13;98380.47;5086688;27;20042;-75
2021/04/14 00:23:12;;;;;;;3.22;2.38;;;;;;;3.19;56.00;98382.09;5108797;27;20545;-75
2021/04/14 00:25:42;;;;;;;6.18;2.75;;;;;;;3.20;56.28;98372.59;5106105;27;20072;-76
2021/04/14 00:28:07;;;;;;;5.40;2.70;;;;;;;3.24;56.11;98376.47;5108399;28;20487;-76
2021/04/14 00:30:33;;;;;;;6.18;2.38;;;;;;;3.29;56.09;98371.63;5105378;27;20356;-75
2021/04/14 00:33:00;;;;;;;3.85;2.30;;;;;;;3.30;55.87;98380.13;5094441;27;20386;-75
2021/04/14 00:35:26;;;;;;;3.22;2.50;;;;;;;3.24;55.85;98373.06;5109365;27;20035;-75
2021/04/14 00:37:52;;;;;;;3.65;2.25;;;;;;;3.25;56.04;98375.47;5072592;27;20032;-76
2021/04/14 00:40:32;;;;;;;3.38;2.13;;;;;;;2.94;56.04;98372.88;5094422;27;20078;-75
2021/04/14 00:42:58;;;;;;;6.07;3.88;;;;;;;3.12;55.90;98376.03;5087454;27;20051;-75
2021/04/14 00:45:25;;;;;;;7.15;3.35;;;;;;;3.11;55.95;98369.25;5106271;27;20036;-75
2021/04/14 00:47:50;;;;;;;3.03;2.50;;;;;;;3.14;56.12;98371.50;5069591;27;20050;-75
2021/04/14 00:50:18;;;;;;;4.57;2.92;;;;;;;3.12;56.15;98372.63;5086271;27;20466;-75
2021/04/14 00:52:43;;;;;;;3.97;2.25;;;;;;;3.17;56.17;98367.78;5092279;27;20488;-75
2021/04/14 00:55:13;;;;;;;4.50;2.00;;;;;;;3.07;56.00;98369.75;5109622;27;20118;-75
2021/04/14 00:57:40;;;;;;;5.40;3.13;;;;;;;3.07;56.64;98370.56;5075665;27;20069;-75
2021/04/14 01:00:10;;;;;;;5.15;2.65;;;;;;;3.13;56.37;98364.75;5072344;28;20032;-75
2021/04/14 01:02:35;;;;;;;4.38;2.50;;;;;;;3.23;56.59;98366.34;5061271;27;20050;-75
2021/04/14 01:05:00;;;;;;;4.00;2.47;;;;;;;3.19;56.29;98350.44;5072739;28;20296;-75
2021/04/14 01:07:26;;;;;;;4.40;2.28;;;;;;;3.29;56.19;98360.50;5076528;27;20470;-75
2021/04/14 01:09:51;;;;;;;3.83;2.60;;;;;;;3.27;56.39;98359.88;5086357;28;20379;-75
2021/04/14 01:12:16;;;;;;;6.05;3.33;;;;;;;3.25;56.17;98361.81;5103282;27;20046;-75
2021/04/14 01:14:42;;;;;;;3.50;2.45;;;;;;;3.18;56.68;98348.81;5075624;28;20027;-75
2021/04/14 01:17:07;;;;;;;5.20;2.80;;;;;;;3.16;56.59;98355.91;5098329;28;20040;-75
2021/04/14 01:19:33;;;;;;;6.85;2.67;;;;;;;3.18;56.85;98359.91;5071357;28;20024;-75
2021/04/14 01:21:58;;;;;;;4.05;2.45;;;;;;;3.14;57.06;98350.94;5094673;27;20064;-75
2021/04/14 01:24:24;;;;;;;5.03;2.50;;;;;;;3.23;56.19;98356.84;5094841;27;20596;-75
2021/04/14 01:26:51;;;;;;;4.78;2.58;;;;;;;3.15;56.35;98344.81;5066549;28;20032;-75
2021/04/14 01:29:17;;;;;;;4.85;2.40;;;;;;;3.06;56.67;98345.81;5093654;27;20027;-75
2021/04/14 01:31:42;;;;;;;6.70;2.95;;;;;;;2.98;57.37;98344.09;5111908;27;20054;-75
2021/04/14 01:34:12;;;;;;;5.88;2.90;;;;;;;2.85;56.81;98353.28;5100165;28;20084;-76
2021/04/14 01:36:37;;;;;;;3.95;2.50;;;;;;;2.90;57.01;98346.66;5076190;27;20335;-75
2021/04/14 01:39:05;;;;;;;5.18;2.80;;;;;;;2.81;56.72;98345.06;5072659;28;20027;-75
2021/04/14 01:41:30;;;;;;;5.80;2.75;;;;;;;2.85;57.05;98351.50;5065756;28;20478;-75
2021/04/14 01:43:56;;;;;;;5.70;2.65;;;;;;;2.81;57.44;98343.31;5080945;28;20049;-75
2021/04/14 01:46:21;;;;;;;5.35;3.28;;;;;;;2.81;58.05;98340.75;5108115;28;20514;-76
2021/04/14 01:48:47;;;;;;;6.13;3.10;;;;;;;2.80;58.00;98343.50;5070966;27;20500;-75
2021/04/14 01:51:13;;;;;;;8.32;3.55;;;;;;;2.73;57.83;98338.19;5087167;27;20071;-76
2021/04/14 01:53:38;;;;;;;6.00;3.13;;;;;;;2.66;58.04;98339.84;5110265;27;20029;-75
2021/04/14 01:56:04;;;;;;;8.02;3.22;;;;;;;2.48;57.71;98339.22;5111151;27;20035;-76
2021/04/14 01:58:31;;;;;;;5.72;3.63;;;;;;;2.50;57.44;98335.53;5128999;27;20506;-75
2021/04/14 02:01:00;;;;;;;6.57;3.72;;;;;;;2.40;57.54;98345.97;5094325;27;20019;-76
2021/04/14 02:03:28;;;;;;;6.30;3.13;;;;;;;2.42;57.68;98346.63;5108809;27;20027;-75
2021/04/14 02:05:53;;;;;;;7.97;3.25;;;;;;;2.50;57.09;98340.69;5084994;27;20031;-75
2021/04/14 02:08:20;;;;;;;6.07;4.00;;;;;;;2.46;57.62;98346.28;5091478;27;20026;-75
2021/04/14 02:10:46;;;;;;;5.07;2.72;;;;;;;2.47;57.16;98350.44;5091764;27;20028;-75
2021/04/14 02:13:18;;;;;;;5.88;3.00;;;;;;;2.28;57.47;98347.28;5102614;27;20019;-75
2021/04/14 02:15:43;;;;;;;9.98;3.53;;;;;;;2.30;57.08;98339.41;5093140;27;20034;-75
2021/04/14 02:18:09;;;;;;;6.18;3.22;;;;;;;2.27;57.35;98337.97;5078552;27;20028;-75
2021/04/14 02:20:35;;;;;;;5.60;3.13;;;;;;;2.29;56.85;98343.72;5108991;28;20278;-75
2021/04/14 02:23:11;;;;;;;7.80;2.35;;;;;;;2.03;57.49;98331.88;5063857;27;20387;-75
2021/04/14 02:25:37;;;;;;;5.30;2.42;;;;;;;2.28;57.39;98331.88;5109469;28;20131;-75
2021/04/14 02:28:02;;;;;;;4.75;2.63;;;;;;;2.29;57.75;98330.88;5092626;27;20039;-75
2021/04/14 02:30:28;;;;;;;4.55;2.50;;;;;;;2.33;57.80;98341.63;5128876;27;20156;-75
2021/04/14 02:32:54;;;;;;;6.53;3.50;;;;;;;2.27;57.13;98327.69;5101647;27;20136;-75
2021/04/14 02:35:21;;;;;;;4.45;2.92;;;;;;;2.28;57.83;98337.00;5108787;28;20031;-75
2021/04/14 02:37:46;;;;;;;6.25;3.63;;;;;;;2.26;57.58;98326.06;5090035;28;20039;-75
2021/04/14 02:40:12;;;;;;;8.30;3.20;;;;;;;2.26;57.84;98338.91;5086122;28;20463;-75
2021/04/14 02:42:40;;;;;;;5.50;3.08;;;;;;;2.28;57.90;98329.31;5104391;28;20039;-75
2021/04/14 02:45:07;;;;;;;5.50;3.22;;;;;;;2.26;58.03;98333.78;5107972;28;20513;-74
2021/04/14 02:47:32;;;;;;;6.63;3.83;;;;;;;2.33;58.65;98329.63;5094307;28;20100;-75
2021/04/14 02:49:57;;;;;;;8.13;3.28;;;;;;;2.41;58.25;98327.00;5110084;28;20557;-75
2021/04/14 02:52:23;;;;;;;6.63;3.63;;;;;;;2.40;58.53;98328.00;5093325;28;20160;-75
2021/04/14 02:54:48;;;;;;;6.22;3.50;;;;;;;2.45;58.66;98314.66;5083224;28;20114;-75
2021/04/14 02:57:14;;;;;;;8.68;3.67;;;;;;;2.42;58.36;98326.06;5107330;28;20037;-75
2021/04/14 02:59:40;;;;;;;6.60;4.15;;;;;;;2.49;58.30;98323.63;5127224;28;20035;-75
2021/04/14 03:02:05;;;;;;;7.68;3.92;;;;;;;2.41;58.48;98324.44;5105711;28;20035;-74
2021/04/14 03:04:31;;;;;;;6.47;3.80;;;;;;;2.40;58.26;98324.63;5105653;28;20027;-75
2021/04/14 03:06:56;;;;;;;9.50;4.20;;;;;;;2.48;58.28;98329.72;5105612;28;20039;-74
2021/04/14 03:09:21;;;;;;;6.30;4.00;;;;;;;2.50;58.66;98319.28;5109404;28;20045;-75
2021/04/14 03:11:47;;;;;;;7.18;3.65;;;;;;;2.41;57.96;98311.59;5145811;27;20043;-75
2021/04/14 03:14:13;;;;;;;7.55;4.18;;;;;;;2.45;58.23;98317.22;5108131;28;20035;-74
2021/04/14 03:16:38;;;;;;;7.45;3.97;;;;;;;2.41;58.02;98321.06;5069684;27;20027;-75
2021/04/14 03:19:03;;;;;;;6.00;3.70;;;;;;;2.39;58.90;98310.94;5109671;27;20046;-75
2021/04/14 03:21:29;;;;;;;8.13;3.90;;;;;;;2.38;58.88;98317.06;5096036;27;20038;-75
2021/04/14 03:23:54;;;;;;;7.22;4.22;;;;;;;2.39;58.80;98318.66;5091557;27;20032;-75
2021/04/14 03:26:20;;;;;;;8.27;3.75;;;;;;;2.40;58.92;98328.00;5114496;27;20666;-74
2021/04/14 03:28:46;;;;;;;8.85;4.00;;;;;;;2.40;58.98;98320.28;5111758;27;20478;-75
2021/04/14 03:31:11;;;;;;;9.25;4.78;;;;;;;2.39;58.44;98305.81;5104931;27;20024;-75
2021/04/14 03:33:36;;;;;;;7.80;3.78;;;;;;;2.41;58.66;98306.44;5079963;27;20458;-75
2021/04/14 03:36:03;;;;;;;10.85;4.82;;;;;;;2.36;58.48;98311.28;5088056;28;20030;-75
2021/04/14 03:38:29;;;;;;;8.70;4.30;;;;;;;2.41;59.07;98298.75;5087496;28;20096;-75
2021/04/14 03:40:54;;;;;;;6.22;4.28;;;;;;;2.35;58.91;98299.41;5086329;27;20035;-75
2021/04/14 03:43:20;;;;;;;7.38;4.40;;;;;;;2.39;58.94;98303.25;5071681;28;20085;-75
2021/04/14 03:45:48;;;;;;;6.07;4.05;;;;;;;2.38;58.64;98299.09;5096615;27;20051;-75
2021/04/14 03:48:14;;;;;;;8.95;4.40;;;;;;;2.39;59.14;98307.59;5132080;27;20031;-74
2021/04/14 03:50:39;;;;;;;9.35;4.00;;;;;;;2.34;59.37;98304.72;5073439;28;20464;-75
2021/04/14 03:53:13;;;;;;;7.30;4.43;;;;;;;2.04;59.01;98304.44;5095724;27;20035;-74
2021/04/14 03:55:38;;;;;;;6.53;4.53;;;;;;;2.29;59.53;98306.97;5096454;27;20030;-75
2021/04/14 03:58:06;;;;;;;7.55;4.82;;;;;;;2.27;59.09;98314.03;5110053;28;20028;-75
2021/04/14 04:00:32;;;;;;;7.78;5.40;;;;;;;2.23;59.43;98308.44;5086488;28;20028;-75
2021/04/14 04:02:57;;;;;;;8.82;4.70;;;;;;;2.21;59.97;98297.47;5093028;28;20575;-74
2021/04/14 04:05:23;;;;;;;7.70;4.60;;;;;;;2.26;59.13;98310.66;5101365;28;20066;-74
2021/04/14 04:07:48;;;;;;;7.28;4.68;;;;;;;2.26;59.24;98308.06;5110043;28;20114;-74
2021/04/14 04:10:14;;;;;;;8.93;4.95;;;;;;;2.21;59.53;98318.03;5091347;28;20033;-74
2021/04/14 04:12:39;;;;;;;11.90;6.80;;;;;;;2.17;59.75;98306.50;5085321;27;20035;-74
2021/04/14 04:15:11;;;;;;;10.68;5.93;;;;;;;2.11;59.88;98310.53;5104538;28;20089;-74
2021/04/14 04:17:36;;;;;;;9.30;5.47;;;;;;;2.13;59.83;98306.03;5105401;27;20053;-75
2021/04/14 04:20:04;;;;;;;9.15;5.15;;;;;;;2.11;59.41;98304.56;5113075;27;20569;-74
2021/04/14 04:22:29;;;;;;;9.25;5.47;;;;;;;2.16;59.79;98305.69;5118175;27;20531;-74
2021/04/14 04:24:55;;;;;;;9.27;5.25;;;;;;;2.20;59.04;98303.59;5112958;27;20035;-74
2021/04/14 04:27:20;;;;;;;8.77;5.07;;;;;;;2.21;59.56;98306.03;5124991;27;20505;-74
2021/04/14 04:29:45;;;;;;;9.25;4.85;;;;;;;2.26;59.68;98308.06;5112644;27;20115;-74
2021/04/14 04:32:11;;;;;;;9.20;5.60;;;;;;;2.29;59.68;98312.09;5094520;27;20416;-74
2021/04/14 04:34:36;;;;;;;7.97;5.50;;;;;;;2.32;59.92;98307.44;5079048;27;20076;-74
2021/04/14 04:37:02;;;;;;;9.95;4.90;;;;;;;2.31;59.35;98302.47;5108782;27;20030;-74
2021/04/14 04:39:28;;;;;;;7.80;4.93;;;;;;;2.34;59.10;98304.72;5102088;27;20038;-75
2021/04/14 04:41:53;;;;;;;9.02;5.68;;;;;;;2.29;58.57;98310.31;5108429;27;20232;-74
2021/04/14 04:44:18;;;;;;;9.82;5.30;;;;;;;2.31;59.38;98307.59;5108944;27;20367;-74
2021/04/14 04:46:44;;;;;;;11.80;5.75;;;;;;;2.32;58.82;98310.00;5089715;27;20251;-74
2021/04/14 04:49:09;;;;;;;8.48;5.47;;;;;;;2.28;59.05;98313.88;5070148;27;20095;-74
2021/04/14 04:51:35;;;;;;;9.60;4.68;;;;;;;2.28;59.27;98316.44;5079682;27;20037;-74
2021/04/14 04:54:00;;;;;;;8.85;5.80;;;;;;;2.31;58.96;98321.25;5072012;27;20038;-74
2021/04/14 04:56:25;;;;;;;7.43;5.40;;;;;;;2.23;58.94;98316.13;5092243;28;20019;-74
2021/04/14 04:58:51;;;;;;;10.35;6.15;;;;;;;2.20;59.02;98329.31;5101270;28;20149;-74
2021/04/14 05:01:16;;;;;;;13.13;6.68;;;;;;;2.18;58.46;98326.09;5074227;28;20027;-74
2021/04/14 05:03:42;;;;;;;25.08;10.82;;;;;;;2.22;58.94;98327.38;5082965;28;20032;-74
2021/04/14 05:06:07;;;;;;;20.50;10.27;;;;;;;2.21;59.02;98331.72;5067572;28;20110;-74
2021/04/14 05:08:32;;;;;;;17.08;8.30;;;;;;;2.21;59.21;98331.72;5102953;28;20123;-74
2021/04/14 05:10:58;;;;;;;15.93;8.80;;;;;;;2.25;58.88;98334.75;5079311;27;20028;-74
2021/04/14 05:13:24;;;;;;;13.43;7.60;;;;;;;2.28;59.13;98333.63;5129435;27;20481;-74
2021/04/14 05:15:49;;;;;;;11.60;6.38;;;;;;;2.32;58.83;98340.84;5077503;27;20028;-74
2021/04/14 05:18:16;;;;;;;9.27;5.10;;;;;;;2.42;59.10;98338.91;5110604;27;20035;-74
2021/04/14 05:20:42;;;;;;;9.30;5.47;;;;;;;2.44;58.87;98336.19;5108141;27;20102;-74
2021/04/14 05:23:09;;;;;;;9.20;5.25;;;;;;;2.38;59.29;98339.38;5089386;27;20423;-74
2021/04/14 05:25:38;;;;;;;10.77;5.53;;;;;;;2.35;59.42;98344.88;5111957;27;20555;-74
2021/04/14 05:28:08;;;;;;;11.05;6.22;;;;;;;2.49;59.12;98338.25;5107541;28;20068;-74
2021/04/14 05:30:33;;;;;;;11.40;5.60;;;;;;;2.54;59.29;98343.72;5104978;27;20486;-74
2021/04/14 05:32:59;;;;;;;8.35;5.80;;;;;;;2.61;58.74;98336.94;5104987;27;20035;-74
2021/04/14 05:35:25;;;;;;;8.27;5.05;;;;;;;2.60;58.79;98332.75;5094927;27;20031;-74
2021/04/14 05:37:50;;;;;;;8.48;5.15;;;;;;;2.67;58.51;98335.47;5104368;27;20034;-75
2021/04/14 05:40:17;;;;;;;9.55;5.05;;;;;;;2.69;58.24;98338.69;5109363;27;20027;-74
2021/04/14 05:42:45;;;;;;;6.85;4.60;;;;;;;2.70;58.26;98335.94;5101566;27;20058;-74
2021/04/14 05:45:15;;;;;;;8.13;5.25;;;;;;;2.71;58.55;98341.88;5111787;27;20034;-75
2021/04/14 05:47:40;;;;;;;9.77;5.25;;;;;;;2.85;58.38;98341.22;5111619;27;20038;-75
2021/04/14 05:50:08;;;;;;;7.90;4.97;;;;;;;2.80;58.20;98340.91;5092593;27;20031;-75
2021/04/14 05:52:34;;;;;;;7.05;4.75;;;;;;;2.90;58.13;98343.31;5090005;27;20034;-75
2021/04/14 05:54:59;;;;;;;7.95;4.78;;;;;;;2.86;58.15;98347.16;5126019;27;20028;-75
2021/04/14 05:57:25;;;;;;;12.95;7.75;;;;;;;2.79;58.27;98359.88;5075098;27;20035;-75
2021/04/14 05:59:52;;;;;;;11.80;8.02;;;;;;;2.76;58.35;98350.75;5084424;27;20042;-75
2021/04/14 06:02:20;;;;;;;17.02;14.93;;;;;;;2.92;58.48;98354.22;5110974;27;20023;-75
2021/04/14 06:04:45;;;;;;;14.23;10.80;;;;;;;3.02;58.16;98362.56;5110681;27;20683;-75
2021/04/14 06:07:11;;;;;;;9.77;6.82;;;;;;;3.01;57.84;98358.38;5093885;27;20031;-75
2021/04/14 06:09:36;;;;;;;45.83;25.35;;;;;;;3.13;57.62;98361.38;5069137;28;20482;-75
2021/04/14 06:12:02;;;;;;;141.60;75.45;;;;;;;3.21;57.54;98358.00;5103158;27;20035;-75
2021/04/14 06:14:27;;;;;;;87.20;51.70;;;;;;;3.39;57.39;98361.09;5109835;27;20027;-75
2021/04/14 06:16:52;;;;;;;15.85;10.35;;;;;;;3.56;57.44;98354.09;5104889;28;20032;-75
2021/04/14 06:19:18;;;;;;;11.32;7.80;;;;;;;3.71;57.18;98359.31;5098004;28;20024;-75
2021/04/14 06:21:44;;;;;;;9.52;6.53;;;;;;;3.93;56.97;98363.69;5106467;28;20036;-76
2021/04/14 06:24:09;;;;;;;18.95;11.07;;;;;;;4.17;56.30;98356.75;5090749;28;20030;-76
2021/04/14 06:26:50;;;;;;;11.18;7.75;;;;;;;4.49;55.27;98362.59;5083663;28;20047;-76
2021/04/14 06:29:16;;;;;;;8.98;6.28;;;;;;;4.64;54.41;98362.59;5095735;27;20043;-76
2021/04/14 06:31:41;;;;;;;13.13;7.07;;;;;;;4.81;54.34;98376.13;5093082;27;20027;-76
2021/04/14 06:34:18;;;;;;;12.35;7.05;;;;;;;4.74;54.00;98370.09;5089366;28;20023;-76
2021/04/14 06:36:45;;;;;;;11.32;7.60;;;;;;;5.02;53.92;98371.09;5107164;28;20023;-76
2021/04/14 06:39:13;;;;;;;10.10;6.60;;;;;;;5.26;53.61;98379.53;5102662;28;20466;-77
2021/04/14 06:41:59;;;;;;;9.25;6.38;;;;;;;5.31;53.45;98378.97;5094446;28;20110;-76
2021/04/14 06:44:40;;;;;;;9.15;7.15;;;;;;;5.43;52.40;98382.69;5080857;28;20058;-77
2021/04/14 06:47:16;;;;;;;9.23;5.50;;;;;;;5.52;51.96;98384.19;5087789;28;20401;-77
2021/04/14 06:49:53;;;;;;;8.45;4.55;;;;;;;5.67;51.83;98380.75;5105537;28;20031;-76
2021/04/14 06:52:29;;;;;;;6.38;4.10;;;;;;;5.86;51.99;98374.19;5093880;28;20039;-76
2021/04/14 06:55:00;;;;;;;6.68;4.93;;;;;;;6.25;50.91;98378.94;5110275;28;20035;-76
2021/04/14 06:57:38;;;;;;;12.40;10.10;;;;;;;6.47;50.33;98371.97;5110724;28;20057;-76
2021/04/14 07:00:07;;;;;;;9.70;6.82;;;;;;;6.52;50.09;98379.97;5110422;28;20034;-76
2021/04/14 07:02:39;;;;;;;7.63;6.15;;;;;;;6.43;49.51;98390.66;5110787;28;20397;-76
2021/04/14 07:05:09;;;;;;;10.07;5.88;;;;;;;6.60;49.01;98378.22;5081231;28;20019;-77
2021/04/14 07:07:38;;;;;;;11.35;8.38;;;;;;;6.70;48.87;98386.44;5102126;28;20038;-76
2021/04/14 07:10:25;;;;;;;10.85;6.28;;;;;;;6.36;49.37;98388.81;5107507;28;20035;-76
2021/04/14 07:12:51;;;;;;;13.15;6.80;;;;;;;7.02;48.55;98390.22;5074837;28;20406;-76
2021/04/14 07:15:18;;;;;;;7.78;5.28;;;;;;;7.35;48.46;98388.78;5049644;28;20382;-76
2021/04/14 07:17:50;;;;;;;5.18;3.20;;;;;;;7.01;48.16;98393.81;5116044;28;20564;-76
2021/04/14 07:20:23;;;;;;;10.35;7.28;;;;;;;6.84;48.73;98395.13;5091873;28;20061;-76
2021/04/14 07:22:59;;;;;;;7.75;3.88;;;;;;;6.91;48.55;98386.38;5090247;28;20031;-76
2021/04/14 07:25:27;;;;;;;7.40;4.45;;;;;;;6.86;48.72;98399.09;5089282;28;20019;-76
2021/04/14 07:28:08;;;;;;;7.78;6.15;;;;;;;7.45;47.75;98390.06;5109246;28;20578;-76
2021/04/14 07:31:07;;;;;;;5.78;3.92;;;;;;;7.58;46.88;98389.28;5079844;28;20032;-76
2021/04/14 07:33:59;;;;;;;4.05;3.13;;;;;;;7.55;46.36;98396.66;5058108;28;20092;-76
2021/04/14 07:36:33;;;;;;;4.80;3.05;;;;;;;7.61;46.96;98388.91;5090933;28;20026;-77
2021/04/14 07:39:11;;;;;;;4.40;2.60;;;;;;;7.93;45.88;98394.34;5102690;28;20042;-76
2021/04/14 07:41:57;;;;;;;6.25;3.60;;;;;;;7.46;46.51;98390.84;5104041;28;20078;-76
2021/04/14 07:44:27;;;;;;;4.45;2.90;;;;;;;7.60;46.69;98387.28;5127286;28;20536;-76
2021/04/14 07:46:52;;;;;;;5.63;3.72;;;;;;;7.61;46.87;98386.31;5109035;28;20031;-77
2021/04/14 07:49:19;;;;;;;4.13;2.72;;;;;;;7.38;46.67;98393.59;5107507;28;20024;-76
2021/04/14 07:51:45;;;;;;;4.97;3.70;;;;;;;7.86;46.39;98394.34;5109519;27;20080;-76
2021/04/14 07:54:22;;;;;;;5.65;4.70;;;;;;;8.06;46.62;98389.19;5094188;27;20039;-76
2021/04/14 07:56:49;;;;;;;7.25;3.13;;;;;;;8.37;44.97;98387.81;5093608;27;20083;-76
2021/04/14 07:59:36;;;;;;;7.10;4.72;;;;;;;8.02;45.48;98388.00;5102939;27;20035;-76
2021/04/14 08:02:11;;;;;;;3.03;2.42;;;;;;;7.99;45.94;98385.78;5090424;28;20024;-76
2021/04/14 08:04:45;;;;;;;6.07;3.03;;;;;;;8.15;46.06;98389.00;5113541;27;20418;-76
2021/04/14 08:07:18;;;;;;;4.47;2.67;;;;;;;8.12;46.51;98384.19;5087323;27;20397;-76
2021/04/14 08:09:54;;;;;;;3.28;2.35;;;;;;;8.87;45.02;98386.59;5095069;27;20062;-76
2021/04/14 08:12:30;;;;;;;4.07;2.92;;;;;;;9.29;44.10;98381.91;5073788;27;20035;-76
2021/04/14 08:15:15;;;;;;;6.15;2.90;;;;;;;8.55;44.69;98383.84;5092453;27;20038;-76
2021/04/14 08:17:45;;;;;;;12.55;5.28;;;;;;;8.86;44.35;98379.78;5094524;27;20122;-76
2021/04/14 08:20:32;;;;;;;4.50;3.67;;;;;;;9.10;43.92;98386.94;5078620;27;20420;-76
2021/04/14 08:23:11;;;;;;;5.35;3.08;;;;;;;8.96;43.74;98378.41;5129575;27;20046;-76
2021/04/14 08:25:44;;;;;;;4.75;3.03;;;;;;;10.25;42.28;98374.94;5092086;27;20043;-76
2021/04/14 08:28:10;;;;;;;4.20;3.22;;;;;;;10.68;41.20;98375.00;5101117;28;20129;-76
2021/04/14 08:30:35;;;;;;;3.17;2.63;;;;;;;10.62;41.11;98372.44;5077200;27;20028;-76
2021/04/14 08:33:04;;;;;;;4.32;3.13;;;;;;;10.07;40.87;98376.44;5107970;28;20085;-76
2021/04/14 08:35:41;;;;;;;5.30;2.38;;;;;;;10.39;41.44;98371.25;5091313;28;20036;-76
2021/04/14 08:38:13;;;;;;;5.80;2.58;;;;;;;11.17;39.95;98376.91;5076447;27;20045;-76
2021/04/14 08:40:45;;;;;;;6.35;3.42;;;;;;;10.75;40.09;98363.72;5109870;27;20035;-76
2021/04/14 08:43:12;;;;;;;4.40;2.85;;;;;;;10.92;40.11;98369.97;5070975;28;20097;-76
2021/04/14 08:45:44;;;;;;;6.63;3.17;;;;;;;10.82;40.44;98367.06;5104246;27;20409;-75
2021/04/14 08:48:17;;;;;;;4.10;2.47;;;;;;;10.78;40.33;98364.09;5094762;27;20566;-75
2021/04/14 08:50:53;;;;;;;5.15;2.75;;;;;;;10.83;39.73;98363.41;5111413;27;20490;-76
2021/04/14 08:53:24;;;;;;;3.75;2.70;;;;;;;9.73;41.38;98364.66;5101042;27;20031;-76
2021/04/14 08:55:49;;;;;;;5.22;3.25;;;;;;;10.67;40.18;98360.38;5085790;27;20215;-76
2021/04/14 08:58:17;;;;;;;3.40;2.30;;;;;;;10.07;39.94;98362.66;5077012;27;20096;-76
2021/04/14 09:00:43;;;;;;;4.63;2.58;;;;;;;10.60;40.29;98346.63;5111480;27;20406;-76
2021/04/14 09:03:11;;;;;;;4.25;2.50;;;;;;;11.38;39.19;98350.38;5110889;27;20031;-76
2021/04/14 09:05:36;;;;;;;3.65;2.40;;;;;;;12.23;37.88;98340.75;5083352;27;20038;-76
2021/04/14 09:08:02;;;;;;;6.00;2.10;;;;;;;12.51;36.06;98336.69;5075810;27;20036;-76
2021/04/14 09:10:38;;;;;;;4.30;2.10;;;;;;;11.76;35.07;98333.59;5105605;28;20156;-76
2021/04/14 09:13:06;;;;;;;3.25;1.90;;;;;;;12.16;36.36;98334.84;5098541;27;20041;-76
2021/04/14 09:15:32;;;;;;;2.75;1.23;;;;;;;12.44;34.22;98336.81;5091992;27;20441;-76
2021/04/14 09:17:58;;;;;;;1.98;1.30;;;;;;;12.13;34.70;98330.06;5076543;27;20035;-76
2021/04/14 09:20:30;;;;;;;2.30;1.50;;;;;;;12.72;33.31;98332.69;5076880;27;20027;-76
2021/04/14 09:23:03;;;;;;;4.50;1.52;;;;;;;12.83;33.64;98325.84;5110919;27;20047;-75
2021/04/14 09:25:42;;;;;;;4.20;2.17;;;;;;;11.51;34.99;98327.75;5104378;27;20043;-76
2021/04/14 09:28:09;;;;;;;2.72;1.73;;;;;;;11.35;36.34;98332.56;5106423;27;20031;-76
2021/04/14 09:30:46;;;;;;;3.85;1.67;;;;;;;11.04;36.52;98338.75;5104852;27;20486;-76
2021/04/14 09:33:14;;;;;;;3.15;1.95;;;;;;;10.50;37.60;98338.50;5086053;28;20466;-76
2021/04/14 09:35:51;;;;;;;2.97;1.80;;;;;;;9.78;38.11;98331.03;5093522;27;20137;-76
2021/04/14 09:38:40;;;;;;;3.35;1.65;;;;;;;8.87;40.69;98339.84;5122680;27;20040;-76
2021/04/14 09:41:16;;;;;;;;;;;;;;;8.18;43.70;98347.09;5127027;27;20039;-76
2021/04/14 09:43:45;;;;;;;4.13;2.60;;;;;;;7.71;46.47;98360.03;5093345;27;19908;-76
2021/04/14 09:46:26;;;;;;;4.15;2.05;;;;;;;7.96;47.36;98355.06;5109868;27;20042;-76
2021/04/14 09:48:51;;;;;;;4.57;2.13;;;;;;;7.39;49.18;98364.91;5092834;27;20031;-76
2021/04/14 09:51:33;;;;;;;4.63;2.30;;;;;;;7.82;48.56;98356.03;5086928;27;20037;-76
2021/04/14 09:54:06;;;;;;;4.65;2.38;;;;;;;7.84;47.28;98356.66;5091464;27;20093;-76
2021/04/14 09:56:33;;;;;;;2.97;2.15;;;;;;;8.30;45.77;98358.47;5106647;27;20063;-76
2021/04/14 09:59:18;;;;;;;3.40;2.50;;;;;;;8.48;45.20;98352.69;5109611;27;20041;-76
2021/04/14 10:01:44;;;;;;;3.80;2.10;;;;;;;9.06;41.73;98351.19;5090519;27;20465;-76
2021/04/14 10:04:19;;;;;;;3.00;1.77;;;;;;;9.09;39.63;98346.38;5109897;27;20076;-76
2021/04/14 10:06:49;;;;;;;1.95;1.75;;;;;;;9.22;40.01;98345.53;5110476;27;20033;-76
2021/04/14 10:09:29;;;;;;;2.42;1.80;;;;;;;9.38;40.92;98334.66;5075438;27;20077;-76
2021/04/14 10:11:55;;;;;;;3.70;1.35;;;;;;;10.12;38.07;98329.78;5078168;28;20039;-76
2021/04/14 10:14:24;;;;;;;2.83;1.58;;;;;;;10.15;40.37;98330.38;5107300;28;20034;-76
2021/04/14 10:16:52;;;;;;;3.17;1.90;;;;;;;9.93;40.92;98322.94;5073615;27;20023;-77
2021/04/14 10:19:30;;;;;;;3.50;1.98;;;;;;;9.92;40.36;98326.53;5091464;28;20039;-76
2021/04/14 10:21:55;;;;;;;4.03;2.22;;;;;;;10.57;40.29;98321.00;5075964;27;20039;-76
2021/04/14 10:24:21;;;;;;;2.97;1.52;;;;;;;11.14;42.06;98305.16;5109387;27;20042;-76
2021/04/14 10:26:52;;;;;;;2.63;1.75;;;;;;;11.01;37.50;98308.69;5075921;27;20228;-76
2021/04/14 10:29:20;;;;;;;3.03;1.90;;;;;;;11.49;38.40;98295.88;5075670;28;20055;-76
2021/04/14 10:31:45;;;;;;;5.03;2.58;;;;;;;11.60;38.84;98297.72;5122927;27;20274;-76
2021/04/14 10:34:13;;;;;;;4.43;1.50;;;;;;;9.49;38.90;98302.03;5092250;27;20390;-76
2021/04/14 10:36:41;;;;;;;2.33;1.30;;;;;;;9.83;39.45;98305.19;5109378;27;20027;-77
2021/04/14 10:39:29;;;;;;;3.13;1.83;;;;;;;8.91;42.08;98302.88;5109304;28;20041;-77
2021/04/14 10:41:55;;;;;;;2.85;1.85;;;;;;;9.13;42.53;98313.78;5086681;27;20035;-76
2021/04/14 10:44:25;;;;;;;3.58;1.75;;;;;;;9.32;43.18;98308.69;5080098;28;20347;-76
2021/04/14 10:46:58;;;;;;;4.32;1.55;;;;;;;9.16;40.75;98313.34;5108997;28;20028;-76
2021/04/14 10:49:26;;;;;;;3.03;1.42;;;;;;;9.37;40.07;98301.06;5092046;28;20023;-76
2021/04/14 10:51:53;;;;;;;2.40;1.52;;;;;;;9.47;38.61;98300.63;5091463;28;20054;-76
2021/04/14 10:54:23;;;;;;;3.67;2.20;;;;;;;9.30;40.26;98297.72;5081336;28;20027;-76
2021/04/14 10:57:07;;;;;;;2.75;1.50;;;;;;;9.45;40.41;98300.03;5097788;28;20038;-75
2021/04/14 10:59:37;;;;;;;3.42;1.23;;;;;;;9.77;39.07;98305.22;5071821;28;20024;-76
2021/04/14 11:02:10;;;;;;;3.85;1.80;;;;;;;9.82;41.21;98294.97;5098218;28;20531;-76
2021/04/14 11:04:40;;;;;;;2.28;1.30;;;;;;;10.38;40.97;98291.53;5094598;28;20028;-76
2021/04/14 11:07:08;;;;;;;2.83;1.58;;;;;;;10.60;41.30;98297.13;5060808;28;20450;-76
2021/04/14 11:09:37;;;;;;;3.15;1.70;;;;;;;10.70;39.50;98282.81;5084234;28;20066;-76
2021/04/14 11:12:06;;;;;;;1.60;1.33;;;;;;;11.04;40.09;98281.44;5097631;28;20110;-76
2021/04/14 11:14:32;;;;;;;2.95;2.05;;;;;;;11.42;39.55;98268.06;5081538;28;20015;-76
2021/04/14 11:16:58;;;;;;;2.67;2.00;;;;;;;11.58;39.02;98268.44;5081214;28;20042;-75
2021/04/14 11:19:25;;;;;;;2.33;1.33;;;;;;;11.81;38.23;98270.31;5079291;28;20019;-76
2021/04/14 11:22:08;;;;;;;2.42;1.50;;;;;;;11.52;38.70;98251.09;5095742;28;20039;-76
2021/04/14 11:24:54;;;;;;;2.47;1.40;;;;;;;11.51;38.54;98257.31;5073683;28;20020;-76
2021/04/14 11:27:31;;;;;;;2.85;1.52;;;;;;;11.61;36.90;98260.97;5128496;27;20023;-75
2021/04/14 11:30:15;;;;;;;2.97;1.45;;;;;;;11.18;39.04;98271.63;5092160;28;20466;-76
2021/04/14 11:32:40;;;;;;;5.18;4.68;;;;;;;11.02;37.44;98273.81;5094558;27;20028;-76
2021/04/14 11:35:12;;;;;;;4.00;2.00;;;;;;;10.72;39.17;98267.78;5083190;27;20393;-76
2021/04/14 11:37:38;;;;;;;6.93;3.42;;;;;;;10.09;40.96;98269.56;5109802;27;20035;-77
2021/04/14 11:40:18;;;;;;;3.83;1.98;;;;;;;9.16;42.36;98268.41;5112181;27;20425;-76
2021/04/14 11:42:56;;;;;;;4.80;2.80;;;;;;;8.71;42.98;98271.78;5121408;27;20513;-76
2021/04/14 11:45:25;;;;;;;3.47;2.45;;;;;;;8.95;41.06;98270.28;5111922;27;20034;-76
2021/04/14 11:47:51;;;;;;;11.85;7.57;;;;;;;8.87;41.55;98261.94;5096029;27;20050;-76